createdAt,value
2023-04-22T00:01:18.432Z,13.55
2023-04-22T00:05:34.800Z,13.60
2023-04-22T00:09:51.026Z,13.79
2023-04-22T00:14:07.298Z,13.67
2023-04-22T00:18:23.703Z,13.84
2023-04-22T00:22:39.995Z,14.01
2023-04-22T00:26:56.368Z,13.70
2023-04-22T00:31:12.731Z,13.45
2023-04-22T00:35:29.070Z,13.26
2023-04-22T00:39:45.875Z,13.27
2023-04-22T00:44:02.221Z,13.35
2023-04-22T00:48:18.846Z,13.22
2023-04-22T00:52:35.170Z,13.43
2023-04-22T00:56:51.519Z,13.37
2023-04-22T01:01:07.886Z,13.55
2023-04-22T01:05:25.906Z,13.43
2023-04-22T01:09:42.498Z,13.37
2023-04-22T01:13:59.049Z,13.46
2023-04-22T01:18:15.828Z,13.78
2023-04-22T01:22:37.193Z,13.72
2023-04-22T01:26:53.726Z,13.60
2023-04-22T01:31:10.288Z,13.48
2023-04-22T01:35:26.685Z,13.58
2023-04-22T01:39:43.339Z,13.71
2023-04-22T01:44:00.642Z,13.81
2023-04-22T01:48:17.006Z,13.54
2023-04-22T01:52:33.312Z,13.44
2023-04-22T01:56:56.121Z,13.54
2023-04-22T02:01:13.279Z,13.37
2023-04-22T02:05:29.671Z,13.45
2023-04-22T02:09:47.396Z,13.56
2023-04-22T02:14:05.022Z,13.58
2023-04-22T02:18:21.269Z,13.34
2023-04-22T02:22:37.857Z,13.50
2023-04-22T02:26:54.136Z,13.43
2023-04-22T02:31:10.549Z,13.60
2023-04-22T02:35:26.895Z,13.46
2023-04-22T02:39:43.151Z,13.30
2023-04-22T02:43:59.530Z,13.25
2023-04-22T02:48:15.941Z,13.43
2023-04-22T02:52:33.659Z,13.36
2023-04-22T02:56:50.047Z,13.60
2023-04-22T03:01:06.358Z,13.42
2023-04-22T03:05:22.859Z,13.14
2023-04-22T03:09:39.589Z,13.00
2023-04-22T03:13:56.128Z,13.18
2023-04-22T03:18:12.467Z,13.12
2023-04-22T03:22:28.771Z,12.93
2023-04-22T03:26:45.287Z,12.90
2023-04-22T03:31:01.596Z,12.84
2023-04-22T03:35:17.865Z,13.06
2023-04-22T03:39:34.121Z,12.98
2023-04-22T03:43:50.455Z,12.92
2023-04-22T03:48:06.866Z,12.62
2023-04-22T03:52:23.197Z,12.84
2023-04-22T03:56:39.528Z,12.77
2023-04-22T04:00:55.885Z,12.74
2023-04-22T04:05:12.448Z,12.71
2023-04-22T04:09:28.906Z,12.64
2023-04-22T04:13:45.213Z,12.57
2023-04-22T04:18:01.820Z,12.58
2023-04-22T04:22:18.688Z,12.70
2023-04-22T04:26:34.949Z,12.62
2023-04-22T04:30:53.831Z,12.57
2023-04-22T04:35:13.213Z,12.49
2023-04-22T04:39:29.793Z,12.47
2023-04-22T04:43:46.648Z,12.32
2023-04-22T04:48:03.363Z,12.17
2023-04-22T04:52:19.727Z,12.44
2023-04-22T04:56:36.084Z,12.24
2023-04-22T05:00:52.394Z,12.10
2023-04-22T05:05:09.415Z,12.12
2023-04-22T05:09:25.751Z,11.99
2023-04-22T05:13:42.131Z,12.17
2023-04-22T05:17:58.452Z,12.17
2023-04-22T05:22:14.822Z,12.21
2023-04-22T05:26:31.077Z,12.22
2023-04-22T05:30:47.345Z,12.40
2023-04-22T05:35:04.293Z,11.98
2023-04-22T05:39:21.121Z,12.32
2023-04-22T05:43:37.566Z,12.59
2023-04-22T05:47:53.974Z,12.79
2023-04-22T05:52:10.249Z,12.94
2023-04-22T05:56:26.779Z,13.14
2023-04-22T06:00:43.082Z,13.39
2023-04-22T06:04:59.855Z,13.63
2023-04-22T06:09:16.408Z,13.49
2023-04-22T06:13:32.739Z,13.40
2023-04-22T06:17:49.929Z,13.93
2023-04-22T06:22:06.328Z,13.88
2023-04-22T06:26:22.653Z,14.22
2023-04-22T06:30:39.022Z,14.50
2023-04-22T06:34:55.328Z,14.07
2023-04-22T06:39:11.808Z,14.41
2023-04-22T06:43:28.101Z,14.69
2023-04-22T06:47:44.484Z,15.18
2023-04-22T06:52:00.852Z,14.96
2023-04-22T06:56:17.252Z,15.52
2023-04-22T07:00:33.657Z,15.55
2023-04-22T07:04:50.002Z,15.81
2023-04-22T07:09:06.422Z,15.77
2023-04-22T07:13:22.687Z,15.87
2023-04-22T07:17:39.121Z,16.19
2023-04-22T07:21:55.603Z,16.12
2023-04-22T07:26:12.072Z,16.61
2023-04-22T07:30:28.346Z,16.15
2023-04-22T07:34:44.605Z,16.49
2023-04-22T07:39:01.032Z,17.01
2023-04-22T07:43:18.373Z,17.47
2023-04-22T07:47:34.725Z,18.16
2023-04-22T07:51:52.462Z,18.45
2023-04-22T07:56:09.106Z,18.65
2023-04-22T08:00:25.369Z,18.92
2023-04-22T08:04:41.976Z,18.94
2023-04-22T08:08:58.278Z,19.25
2023-04-22T08:13:15.336Z,19.87
2023-04-22T08:17:32.781Z,19.35
2023-04-22T08:21:49.116Z,19.76
2023-04-22T08:26:05.711Z,20.18
2023-04-22T08:30:22.159Z,20.16
2023-04-22T08:34:39.027Z,20.71
2023-04-22T08:38:55.643Z,20.69
2023-04-22T08:43:12.525Z,20.98
2023-04-22T08:47:29.291Z,20.69
2023-04-22T08:51:46.280Z,20.96
2023-04-22T08:56:02.934Z,20.83
2023-04-22T09:00:19.646Z,21.48
2023-04-22T09:04:36.830Z,21.76
2023-04-22T09:08:53.390Z,21.71
2023-04-22T09:13:10.552Z,21.68
2023-04-22T09:17:34.647Z,22.09
2023-04-22T09:21:53.697Z,21.82
2023-04-22T09:26:11.181Z,21.42
2023-04-22T09:30:32.279Z,21.88
2023-04-22T09:34:58.626Z,22.02
2023-04-22T09:39:15.147Z,21.59
2023-04-22T09:43:32.858Z,22.27
2023-04-22T09:47:49.165Z,22.57
2023-04-22T09:52:06.202Z,22.35
2023-04-22T09:56:24.187Z,22.63
2023-04-22T10:00:45.080Z,22.61
2023-04-22T10:05:01.813Z,23.31
2023-04-22T10:09:20.887Z,23.45
2023-04-22T10:13:37.170Z,23.22
2023-04-22T10:17:55.389Z,23.77
2023-04-22T10:22:12.222Z,23.11
2023-04-22T10:26:50.724Z,24.08
2023-04-22T10:31:22.498Z,23.89
2023-04-22T10:35:38.862Z,23.57
2023-04-22T10:40:14.213Z,22.74
2023-04-22T10:44:45.792Z,23.86
2023-04-22T10:49:18.382Z,24.24
2023-04-22T10:53:38.118Z,24.44
2023-04-22T10:57:54.750Z,24.81
2023-04-22T11:02:12.242Z,24.42
2023-04-22T11:06:30.576Z,24.40
2023-04-22T11:10:49.030Z,24.94
2023-04-22T11:15:20.282Z,25.28
2023-04-22T11:19:37.007Z,25.91
2023-04-22T11:23:53.716Z,25.60
2023-04-22T11:28:10.633Z,24.92
2023-04-22T11:32:27.497Z,23.95
2023-04-22T11:36:47.309Z,23.51
2023-04-22T11:41:05.273Z,23.55
2023-04-22T11:45:22.088Z,23.11
2023-04-22T11:49:39.536Z,22.41
2023-04-22T11:53:58.382Z,22.29
2023-04-22T11:58:20.400Z,22.40
2023-04-22T12:02:36.749Z,22.33
2023-04-22T12:06:53.042Z,22.13
2023-04-22T12:11:10.890Z,22.38
2023-04-22T12:15:27.243Z,22.65
2023-04-22T12:19:48.283Z,22.79
2023-04-22T12:24:10.801Z,22.68
2023-04-22T12:28:27.071Z,23.00
2023-04-22T12:32:43.383Z,23.51
2023-04-22T12:37:00.008Z,24.70
2023-04-22T12:41:16.785Z,25.32
2023-04-22T12:45:33.132Z,26.09
2023-04-22T12:49:49.601Z,26.61
2023-04-22T12:54:05.910Z,26.34
2023-04-22T12:58:22.212Z,26.14
2023-04-22T13:02:38.681Z,26.35
2023-04-22T13:06:56.678Z,25.49
2023-04-22T13:11:12.910Z,25.21
2023-04-22T13:15:30.390Z,24.88
2023-04-22T13:19:47.775Z,24.62
2023-04-22T13:24:04.232Z,24.45
2023-04-22T13:28:20.630Z,24.23
2023-04-22T13:32:36.929Z,23.43
2023-04-22T13:36:53.341Z,23.65
2023-04-22T13:41:09.737Z,23.79
2023-04-22T13:45:26.409Z,23.83
2023-04-22T13:49:42.834Z,23.65
2023-04-22T13:53:59.769Z,23.96
2023-04-22T13:58:16.039Z,23.69
2023-04-22T14:02:32.435Z,23.50
2023-04-22T14:06:48.801Z,23.70
2023-04-22T14:11:06.722Z,23.63
2023-04-22T14:15:22.999Z,23.42
2023-04-22T14:19:40.203Z,22.79
2023-04-22T14:23:56.690Z,23.39
2023-04-22T14:28:14.020Z,23.31
2023-04-22T14:32:30.518Z,23.37
2023-04-22T14:36:46.747Z,22.65
2023-04-22T14:41:04.014Z,23.32
2023-04-22T14:45:20.336Z,23.35
2023-04-22T14:49:37.021Z,23.79
2023-04-22T14:53:53.347Z,23.99
2023-04-22T14:58:09.796Z,24.32
2023-04-22T15:02:26.175Z,23.72
2023-04-22T15:06:42.818Z,23.83
2023-04-22T15:11:00.090Z,23.78
2023-04-22T15:15:18.179Z,23.91
2023-04-22T15:19:34.491Z,24.00
2023-04-22T15:23:50.802Z,24.36
2023-04-22T15:28:07.194Z,24.94
2023-04-22T15:32:23.469Z,24.54
2023-04-22T15:36:39.783Z,24.36
2023-04-22T15:40:56.088Z,24.46
2023-04-22T15:45:12.587Z,24.21
2023-04-22T15:49:28.855Z,24.66
2023-04-22T15:53:48.482Z,25.12
2023-04-22T15:58:05.214Z,24.61
2023-04-22T16:02:21.711Z,25.19
2023-04-22T16:06:38.718Z,25.02
2023-04-22T16:10:55.050Z,25.30
2023-04-22T16:15:11.819Z,24.93
2023-04-22T16:19:28.262Z,24.89
2023-04-22T16:23:45.688Z,24.95
2023-04-22T16:28:02.051Z,24.89
2023-04-22T16:32:18.333Z,24.92
2023-04-22T16:36:34.703Z,24.97
2023-04-22T16:40:54.368Z,25.03
2023-04-22T16:45:10.931Z,24.74
2023-04-22T16:49:27.230Z,24.74
2023-04-22T16:53:43.798Z,24.68
2023-04-22T16:58:02.944Z,24.49
2023-04-22T17:02:19.977Z,24.55
2023-04-22T17:06:39.138Z,24.76
2023-04-22T17:10:56.517Z,25.66
2023-04-22T17:15:12.971Z,25.97
2023-04-22T17:19:29.281Z,25.53
2023-04-22T17:23:45.517Z,24.92
2023-04-22T17:28:03.797Z,24.50
2023-04-22T17:32:22.217Z,24.04
2023-04-22T17:36:40.568Z,23.60
2023-04-22T17:40:56.848Z,23.04
2023-04-22T17:45:15.557Z,22.64
2023-04-22T17:49:32.226Z,22.29
2023-04-22T17:53:48.455Z,21.89
2023-04-22T17:58:07.274Z,21.56
2023-04-22T18:02:27.342Z,21.37
2023-04-22T18:06:43.645Z,20.90
2023-04-22T18:11:02.029Z,20.55
2023-04-22T18:15:21.431Z,20.35
2023-04-22T18:19:38.157Z,20.19
2023-04-22T18:23:54.676Z,20.07
2023-04-22T18:28:11.759Z,19.78
2023-04-22T18:32:31.543Z,19.63
2023-04-22T18:36:49.204Z,19.20
2023-04-22T18:41:06.122Z,18.91
2023-04-22T18:45:25.316Z,18.84
2023-04-22T18:49:43.049Z,18.67
2023-04-22T18:54:01.759Z,18.57
2023-04-22T19:02:59.744Z,18.52
2023-04-22T19:07:27.616Z,18.05
2023-04-22T19:11:44.691Z,17.97
2023-04-22T19:16:01.412Z,17.63
2023-04-22T19:20:19.923Z,17.69
2023-04-22T19:24:36.377Z,17.68
2023-04-22T19:28:52.614Z,17.84
2023-04-22T19:33:09.998Z,17.65
2023-04-22T19:37:28.615Z,17.62
2023-04-22T19:41:44.858Z,17.17
2023-04-22T19:46:03.338Z,17.13
2023-04-22T19:50:21.131Z,17.19
2023-04-22T19:54:39.765Z,17.11
2023-04-22T19:58:59.209Z,16.96
2023-04-22T20:03:18.365Z,16.92
2023-04-22T20:07:35.668Z,16.82
2023-04-22T20:11:53.913Z,16.63
2023-04-22T20:16:12.803Z,16.69
2023-04-22T20:20:31.312Z,16.48
2023-04-22T20:24:48.449Z,16.40
2023-04-22T20:29:08.167Z,16.33
2023-04-22T20:33:24.949Z,16.24
2023-04-22T20:37:41.408Z,16.16
2023-04-22T20:41:58.708Z,15.86
2023-04-22T20:46:15.076Z,15.81
2023-04-22T20:50:34.743Z,15.70
2023-04-22T20:54:57.948Z,15.54
2023-04-22T20:59:14.369Z,15.37
2023-04-22T21:03:31.216Z,15.36
2023-04-22T21:07:50.291Z,15.25
2023-04-22T21:12:06.921Z,15.50
2023-04-22T21:16:30.744Z,14.88
2023-04-22T21:20:48.772Z,14.95
2023-04-22T21:25:06.281Z,15.00
2023-04-22T21:29:22.749Z,14.78
2023-04-22T21:33:39.046Z,14.74
2023-04-22T21:37:55.727Z,14.76
2023-04-22T21:42:12.091Z,14.71
2023-04-22T21:46:28.449Z,14.68
2023-04-22T21:50:44.717Z,14.66
2023-04-22T21:55:01.080Z,14.56
2023-04-22T21:59:17.406Z,14.41
2023-04-22T22:03:33.949Z,14.27
2023-04-22T22:07:50.403Z,14.31
2023-04-22T22:12:07.591Z,14.34
2023-04-22T22:16:24.910Z,14.13
2023-04-22T22:20:41.333Z,14.15
2023-04-22T22:24:57.678Z,14.17
2023-04-22T22:29:16.910Z,14.04
2023-04-22T22:33:33.283Z,13.78
2023-04-22T22:37:49.701Z,13.72
2023-04-22T22:42:06.138Z,13.51
2023-04-22T22:46:23.139Z,13.64
2023-04-22T22:50:40.189Z,13.42
2023-04-22T22:54:56.481Z,13.49
2023-04-22T22:59:12.861Z,13.46
2023-04-22T23:03:29.454Z,13.37
2023-04-22T23:07:45.870Z,13.56
2023-04-22T23:12:02.934Z,13.38
2023-04-22T23:16:19.388Z,13.34
2023-04-22T23:20:36.628Z,13.46
2023-04-22T23:24:53.229Z,13.14
2023-04-22T23:29:09.713Z,12.99
2023-04-22T23:33:26.592Z,13.04
2023-04-22T23:37:46.570Z,12.95
2023-04-22T23:42:02.941Z,13.24
2023-04-22T23:46:19.348Z,13.25
2023-04-22T23:50:36.462Z,13.03
2023-04-22T23:54:53.044Z,12.93
2023-04-22T23:59:09.616Z,13.05
